createdAt,value
2022-11-25T00:11:47.626Z,-1.69
2022-11-25T00:21:51.165Z,-1.77
2022-11-25T00:31:54.845Z,-1.83
2022-11-25T00:42:17.264Z,-1.92
2022-11-25T00:52:24.153Z,-1.75
2022-11-25T01:02:27.902Z,-1.81
2022-11-25T01:12:31.696Z,-1.90
2022-11-25T01:22:35.254Z,-2.09
2022-11-25T01:32:39.554Z,-2.03
2022-11-25T01:42:46.033Z,-1.87
2022-11-25T01:52:53.076Z,-1.67
2022-11-25T02:02:59.056Z,-1.60
2022-11-25T02:13:03.852Z,-1.47
2022-11-25T02:23:25.950Z,-1.62
2022-11-25T02:33:31.160Z,-1.68
2022-11-25T02:43:35.080Z,-1.54
2022-11-25T02:53:40.424Z,-1.26
2022-11-25T03:03:44.212Z,-1.31
2022-11-25T03:13:47.882Z,-1.14
2022-11-25T03:23:52.084Z,-0.89
2022-11-25T03:33:56.441Z,-0.60
2022-11-25T03:44:00.248Z,-0.53
2022-11-25T03:54:03.975Z,-0.59
2022-11-25T04:04:16.026Z,-0.59
2022-11-25T04:14:19.969Z,-0.06
2022-11-25T04:24:24.402Z,0.12
2022-11-25T04:34:29.713Z,0.13
2022-11-25T04:44:35.353Z,0.39
2022-11-25T04:54:40.031Z,0.71
2022-11-25T05:04:46.021Z,0.87
2022-11-25T05:14:53.813Z,0.87
2022-11-25T05:24:59.507Z,1.10
2022-11-25T05:35:04.571Z,0.85
2022-11-25T05:45:15.153Z,0.75
2022-11-25T05:55:20.224Z,0.87
2022-11-25T06:05:25.450Z,1.03
2022-11-25T06:15:29.053Z,1.02
2022-11-25T06:25:34.298Z,1.13
2022-11-25T06:35:38.222Z,1.32
2022-11-25T06:45:43.292Z,1.32
2022-11-25T06:55:46.907Z,1.22
2022-11-25T07:05:50.399Z,1.04
2022-11-25T07:15:53.949Z,1.00
2022-11-25T07:26:06.498Z,0.95
2022-11-25T07:36:12.542Z,0.53
2022-11-25T07:46:22.004Z,0.38
2022-11-25T07:56:30.384Z,0.58
2022-11-25T08:06:39.576Z,0.97
2022-11-25T08:16:43.320Z,1.47
2022-11-25T08:26:48.692Z,1.57
2022-11-25T08:36:53.012Z,1.75
2022-11-25T08:46:56.804Z,2.34
2022-11-25T08:57:00.935Z,2.91
2022-11-25T09:07:05.467Z,2.89
2022-11-25T09:17:11.259Z,2.91
2022-11-25T09:27:14.885Z,2.92
2022-11-25T09:37:18.567Z,2.88
2022-11-25T09:47:57.780Z,2.91
2022-11-25T09:58:25.183Z,2.91
2022-11-25T10:08:34.351Z,3.05
2022-11-25T10:18:45.544Z,3.27
2022-11-25T10:29:15.244Z,3.27
2022-11-25T10:39:28.522Z,3.30
2022-11-25T10:49:50.742Z,3.37
2022-11-25T10:59:58.236Z,3.49
2022-11-25T11:10:20.570Z,3.71
2022-11-25T11:20:29.924Z,3.84
2022-11-25T11:30:34.221Z,3.90
2022-11-25T11:40:50.681Z,4.10
2022-11-25T11:51:03.823Z,4.17
2022-11-25T12:01:34.134Z,3.99
2022-11-25T12:11:43.538Z,3.54
2022-11-25T12:21:47.095Z,3.49
2022-11-25T12:32:02.840Z,3.47
2022-11-25T12:42:15.699Z,3.36
2022-11-25T12:52:54.424Z,3.41
2022-11-25T13:03:19.906Z,3.24
2022-11-25T13:13:54.430Z,2.89
2022-11-25T13:23:58.979Z,2.77
2022-11-25T13:34:08.886Z,2.79
2022-11-25T13:44:28.500Z,2.85
2022-11-25T13:54:37.525Z,2.90
2022-11-25T14:05:07.815Z,2.98
2022-11-25T14:15:28.857Z,3.08
2022-11-25T14:25:46.542Z,2.89
2022-11-25T14:35:55.748Z,2.74
2022-11-25T14:46:25.388Z,2.73
2022-11-25T14:56:33.434Z,2.59
2022-11-25T15:06:41.748Z,1.97
2022-11-25T15:16:46.044Z,1.62
2022-11-25T15:26:56.734Z,1.85
2022-11-25T15:37:03.537Z,1.61
2022-11-25T15:47:19.268Z,1.39
2022-11-25T15:57:36.621Z,1.52
2022-11-25T16:07:55.043Z,1.51
2022-11-25T16:18:11.703Z,1.42
2022-11-25T16:28:24.331Z,1.31
2022-11-25T16:38:27.890Z,1.48
2022-11-25T16:48:31.821Z,1.88
2022-11-25T16:58:35.762Z,2.25
2022-11-25T17:08:39.419Z,2.35
2022-11-25T17:18:43.173Z,2.33
2022-11-25T17:29:01.436Z,2.35
2022-11-25T17:39:05.035Z,2.40
2022-11-25T17:49:14.720Z,2.27
2022-11-25T17:59:26.937Z,2.45
2022-11-25T18:09:30.519Z,2.64
2022-11-25T18:19:35.136Z,2.73
2022-11-25T18:29:38.863Z,2.81
2022-11-25T18:39:42.673Z,2.89
2022-11-25T18:49:49.769Z,2.91
2022-11-25T19:00:17.369Z,2.99
2022-11-25T19:10:22.201Z,2.99
2022-11-25T19:20:26.695Z,3.01
2022-11-25T19:30:33.192Z,2.92
2022-11-25T19:40:39.548Z,2.86
2022-11-25T19:50:45.305Z,2.98
2022-11-25T20:00:49.178Z,3.01
2022-11-25T20:10:53.535Z,2.84
2022-11-25T20:21:03.610Z,2.84
2022-11-25T20:31:12.802Z,2.90
2022-11-25T20:41:17.448Z,2.99
2022-11-25T20:51:22.830Z,3.08
2022-11-25T21:01:26.688Z,3.03
2022-11-25T21:11:33.294Z,2.97
2022-11-25T21:21:39.795Z,3.02
2022-11-25T21:31:44.614Z,3.11
2022-11-25T21:41:48.551Z,3.09
2022-11-25T21:51:55.233Z,3.00
2022-11-25T22:01:59.117Z,3.03
2022-11-25T22:12:03.069Z,3.04
2022-11-25T22:22:17.906Z,3.12
2022-11-25T22:32:21.495Z,3.06
2022-11-25T22:42:28.511Z,3.01
2022-11-25T22:52:34.444Z,2.97
2022-11-25T23:02:38.360Z,2.94
2022-11-25T23:12:42.013Z,2.96
2022-11-25T23:22:46.100Z,3.01
2022-11-25T23:32:52.323Z,2.98
2022-11-25T23:42:56.727Z,2.99
2022-11-25T23:53:03.881Z,3.02
